Kynouria — V7VY6 — position and weather

sailwx.info

Track history (hours):
 
Tides and Currents Weather Stations Pressure Air Temp Water Temp Dewpoint Dewpoint Depression Visibility Wind Speed Wind Dir Waves Ship Positions

Kynouria

Last reported at 2016-Mar-14 19:29 UTC. Time now 2016-May-04 07:58 UTC.
Position S 32°54' E 114°60'.
Warning: this ship's position is 50 days out of date.

Length 229 m; draft 9.1 m.

Type: Ship. MMSI: 538004243.

Date/timePositionNaut miles runAvg speedWind from/ knotsBaromVisibWave heightAir tempDewpointWater temp
2016-Mar-14 19:29S 32°54' E 114°60'1 1.1
2016-Mar-14 18:32S 32°54' E 114°59'1 0.9
2016-Mar-14 17:14S 32°55' E 114°58'1 1.6
2016-Mar-14 16:33S 32°56' E 114°57'1411.8
2016-Mar-14 15:23S 32°45' E 114°47'  
2016-Mar-12 11:19S 32°54' E 114°04'3 2.9
2016-Mar-12 10:24S 32°54' E 114°07'2 2.4
2016-Mar-12 09:25S 32°53' E 114°10'  
2016-Mar-10 04:33S 32°47' E 114°43'1 0.9
2016-Mar-10 03:28S 32°47' E 114°44'1 1.2
2016-Mar-10 02:33S 32°46' E 114°45'6 1.4
2016-Mar-09 22:25S 32°44' E 114°51'1 1.4
2016-Mar-09 21:29S 32°44' E 114°53'2 1.1
2016-Mar-09 19:32S 32°45' E 114°55'8 5.6
2016-Mar-09 18:09S 32°38' E 114°60'813.3
2016-Mar-09 17:34S 32°31' E 115°05'1313.1
2016-Mar-09 16:34S 32°20' E 115°13'1312.7
2016-Mar-09 15:34S 32°08' E 115°17'1212.1
2016-Mar-09 14:34S 31°57' E 115°23'1111.3
2016-Mar-09 13:33S 31°54' E 115°36'1010.4
2016-Mar-09 12:34S 32°03' E 115°41'1211.6
2016-Mar-09 11:33S 32°15' E 115°45'0 0.1
2016-Mar-09 10:30S 32°14' E 115°45'0 0.0
2016-Mar-09 09:30S 32°14' E 115°45'0 0.0
2016-Mar-09 08:33S 32°14' E 115°45'0 0.0
2016-Mar-09 07:33S 32°14' E 115°45'0 0.0
2016-Mar-09 06:33S 32°14' E 115°45'0 0.0
2016-Mar-09 05:21S 32°14' E 115°45'0 0.0
2016-Mar-09 04:33S 32°14' E 115°45'0 0.0
2016-Mar-08 20:15S 32°14' E 115°45'0 0.0
2016-Mar-08 19:33S 32°14' E 115°45'0 0.0
2016-Mar-08 18:33S 32°14' E 115°45'0 0.0
2016-Mar-08 17:33S 32°14' E 115°45'0 0.0
2016-Mar-08 16:24S 32°14' E 115°45'0 0.0
2016-Mar-08 15:33S 32°14' E 115°45'0 0.0
2016-Mar-08 14:21S 32°14' E 115°45'0 0.0
2016-Mar-08 13:33S 32°14' E 115°45'0 0.0
2016-Mar-08 12:33S 32°14' E 115°45'0 0.0
2016-Mar-08 11:27S 32°14' E 115°45'0 0.0
2016-Mar-08 10:33S 32°14' E 115°45'0 0.0
2016-Mar-08 09:33S 32°14' E 115°45'0 0.0
2016-Mar-08 08:33S 32°14' E 115°45'0 0.0
2016-Mar-08 07:33S 32°14' E 115°45'0 0.0
2016-Mar-08 06:33S 32°14' E 115°45'0 0.0
2016-Mar-08 04:21S 32°14' E 115°45'0 0.0
2016-Mar-08 03:33S 32°14' E 115°45'0 0.0
2016-Mar-08 02:15S 32°14' E 115°45'0 0.0
2016-Mar-08 01:33S 32°14' E 115°45'0 0.0
2016-Mar-08 00:33S 32°14' E 115°45'0 0.0
2016-Mar-07 22:33S 32°14' E 115°45'0 0.0
2016-Mar-07 21:33S 32°14' E 115°45'0 0.0
2016-Mar-07 17:09S 32°14' E 115°45'0 0.0
2016-Mar-07 16:33S 32°14' E 115°45'0 0.0
2016-Mar-07 15:03S 32°14' E 115°45'0 0.0
2016-Mar-07 14:33S 32°14' E 115°45'0 0.0
2016-Mar-07 13:33S 32°14' E 115°45'0 0.0
2016-Mar-07 11:27S 32°14' E 115°45'0 0.0
2016-Mar-07 10:33S 32°14' E 115°45'0 0.0
2016-Mar-07 09:33S 32°14' E 115°45'0 0.0
2016-Mar-07 08:33S 32°14' E 115°45'0 0.0
2016-Mar-07 07:33S 32°14' E 115°45'0 0.0
2016-Mar-07 06:33S 32°14' E 115°45'0 0.0
2016-Mar-07 05:33S 32°14' E 115°45'0 0.0
2016-Mar-07 04:33S 32°14' E 115°45'0 0.0
2016-Mar-07 03:33S 32°14' E 115°45'0 0.0
2016-Mar-07 02:33S 32°14' E 115°45'0 0.0
2016-Mar-07 01:33S 32°14' E 115°45'0 0.0
2016-Mar-07 00:27S 32°14' E 115°45'0 0.0
2016-Mar-06 23:33S 32°14' E 115°45'0 0.0
2016-Mar-06 22:33S 32°14' E 115°45'0 0.0
2016-Mar-06 21:30S 32°14' E 115°45'0 0.0
2016-Mar-06 20:27S 32°14' E 115°45'0 0.0
2016-Mar-06 19:33S 32°14' E 115°45'0 0.0
2016-Mar-06 18:33S 32°14' E 115°45'0 0.0
2016-Mar-06 15:18S 32°14' E 115°45'0 0.0
2016-Mar-06 14:33S 32°14' E 115°45'0 0.0
2016-Mar-06 13:33S 32°14' E 115°45'0 0.0
2016-Mar-06 11:33S 32°14' E 115°45'0 0.0
2016-Mar-06 10:33S 32°14' E 115°45'0 0.0
2016-Mar-06 09:27S 32°14' E 115°45'0 0.0
2016-Mar-06 08:33S 32°14' E 115°45'0 0.0
2016-Mar-06 07:24S 32°14' E 115°45'0 0.0
2016-Mar-06 06:27S 32°14' E 115°45'0 0.0
2016-Mar-06 05:33S 32°14' E 115°45'0 0.0
2016-Mar-06 04:33S 32°14' E 115°45'0 0.0
2016-Mar-06 03:33S 32°14' E 115°45'0 0.0
2016-Mar-06 02:33S 32°14' E 115°45'0 0.0
2016-Mar-06 01:33S 32°14' E 115°45'0 0.0
2016-Mar-06 00:33S 32°14' E 115°45'0 0.0
2016-Mar-05 23:33S 32°14' E 115°45'0 0.0
2016-Mar-05 22:33S 32°14' E 115°45'0 0.0
2016-Mar-05 21:33S 32°14' E 115°45'0 0.0
2016-Mar-05 20:33S 32°14' E 115°45'0 0.0
2016-Mar-05 19:33S 32°14' E 115°45'0 0.0
2016-Mar-05 18:33S 32°14' E 115°45'0 0.0
2016-Mar-05 17:33S 32°14' E 115°45'0 0.0
2016-Mar-05 16:33S 32°14' E 115°45'0 0.0
2016-Mar-05 15:27S 32°14' E 115°45'0 0.0
2016-Mar-05 14:33S 32°14' E 115°45'0 0.0
2016-Mar-05 13:15S 32°14' E 115°45'0 0.0
2016-Mar-05 12:33S 32°14' E 115°45'0 0.0
2016-Mar-05 11:09S 32°14' E 115°45'0 0.0
2016-Mar-05 10:33S 32°14' E 115°45'0 0.0
2016-Mar-05 09:33S 32°14' E 115°45'0 0.0
2016-Mar-05 08:33S 32°14' E 115°45'0 0.0
2016-Mar-05 07:33S 32°14' E 115°45'0 0.0
2016-Mar-05 06:33S 32°14' E 115°45'0 0.0
2016-Mar-05 05:33S 32°14' E 115°45'0 0.0
2016-Mar-05 04:33S 32°14' E 115°45'0 0.0
2016-Mar-05 03:33S 32°14' E 115°45'0 0.0
2016-Mar-05 02:33S 32°14' E 115°45'0 0.0
2016-Mar-05 01:33S 32°14' E 115°45'0 0.0
2016-Mar-05 00:33S 32°14' E 115°45'0 0.0
2016-Mar-04 23:33S 32°14' E 115°45'0 0.0
2016-Mar-04 22:33S 32°14' E 115°45'0 0.0
2016-Mar-04 21:33S 32°14' E 115°45'0 0.0
2016-Mar-04 20:27S 32°14' E 115°45'0 0.0
2016-Mar-04 19:33S 32°14' E 115°45'  
Track history (hours):
 
Tides and Currents Weather Stations Pressure Air Temp Water Temp Dewpoint Dewpoint Depression Visibility Wind Speed Wind Dir Waves Ship Positions

Kynouria

Last reported at 2016-Mar-14 19:29 UTC. Time now 2016-May-04 07:58 UTC.
Position S 32°54' E 114°60'.
Warning: this ship's position is 50 days out of date.

Length 229 m; draft 9.1 m.

Type: Ship. MMSI: 538004243.

Date/timePositionNaut miles runAvg speedWind from/ knotsBaromVisibWave heightAir tempDewpointWater temp
2016-Mar-14 19:29S 32°54' E 114°60'1 1.1
2016-Mar-14 18:32S 32°54' E 114°59'1 0.9
2016-Mar-14 17:14S 32°55' E 114°58'1 1.6
2016-Mar-14 16:33S 32°56' E 114°57'1411.8
2016-Mar-14 15:23S 32°45' E 114°47'  
2016-Mar-12 11:19S 32°54' E 114°04'3 2.9
2016-Mar-12 10:24S 32°54' E 114°07'2 2.4
2016-Mar-12 09:25S 32°53' E 114°10'  
2016-Mar-10 04:33S 32°47' E 114°43'1 0.9
2016-Mar-10 03:28S 32°47' E 114°44'1 1.2
2016-Mar-10 02:33S 32°46' E 114°45'6 1.4
2016-Mar-09 22:25S 32°44' E 114°51'1 1.4
2016-Mar-09 21:29S 32°44' E 114°53'2 1.1
2016-Mar-09 19:32S 32°45' E 114°55'8 5.6
2016-Mar-09 18:09S 32°38' E 114°60'813.3
2016-Mar-09 17:34S 32°31' E 115°05'1313.1
2016-Mar-09 16:34S 32°20' E 115°13'1312.7
2016-Mar-09 15:34S 32°08' E 115°17'1212.1
2016-Mar-09 14:34S 31°57' E 115°23'1111.3
2016-Mar-09 13:33S 31°54' E 115°36'1010.4
2016-Mar-09 12:34S 32°03' E 115°41'1211.6
2016-Mar-09 11:33S 32°15' E 115°45'0 0.1
2016-Mar-09 10:30S 32°14' E 115°45'0 0.0
2016-Mar-09 09:30S 32°14' E 115°45'0 0.0
2016-Mar-09 08:33S 32°14' E 115°45'0 0.0
2016-Mar-09 07:33S 32°14' E 115°45'0 0.0
2016-Mar-09 06:33S 32°14' E 115°45'0 0.0
2016-Mar-09 05:21S 32°14' E 115°45'0 0.0
2016-Mar-09 04:33S 32°14' E 115°45'0 0.0
2016-Mar-08 20:15S 32°14' E 115°45'0 0.0
2016-Mar-08 19:33S 32°14' E 115°45'0 0.0
2016-Mar-08 18:33S 32°14' E 115°45'0 0.0
2016-Mar-08 17:33S 32°14' E 115°45'0 0.0
2016-Mar-08 16:24S 32°14' E 115°45'0 0.0
2016-Mar-08 15:33S 32°14' E 115°45'0 0.0
2016-Mar-08 14:21S 32°14' E 115°45'0 0.0
2016-Mar-08 13:33S 32°14' E 115°45'0 0.0
2016-Mar-08 12:33S 32°14' E 115°45'0 0.0
2016-Mar-08 11:27S 32°14' E 115°45'0 0.0
2016-Mar-08 10:33S 32°14' E 115°45'0 0.0
2016-Mar-08 09:33S 32°14' E 115°45'0 0.0
2016-Mar-08 08:33S 32°14' E 115°45'0 0.0
2016-Mar-08 07:33S 32°14' E 115°45'0 0.0
2016-Mar-08 06:33S 32°14' E 115°45'0 0.0
2016-Mar-08 04:21S 32°14' E 115°45'0 0.0
2016-Mar-08 03:33S 32°14' E 115°45'0 0.0
2016-Mar-08 02:15S 32°14' E 115°45'0 0.0
2016-Mar-08 01:33S 32°14' E 115°45'0 0.0
2016-Mar-08 00:33S 32°14' E 115°45'0 0.0
2016-Mar-07 22:33S 32°14' E 115°45'0 0.0
2016-Mar-07 21:33S 32°14' E 115°45'0 0.0
2016-Mar-07 17:09S 32°14' E 115°45'0 0.0
2016-Mar-07 16:33S 32°14' E 115°45'0 0.0
2016-Mar-07 15:03S 32°14' E 115°45'0 0.0
2016-Mar-07 14:33S 32°14' E 115°45'0 0.0
2016-Mar-07 13:33S 32°14' E 115°45'0 0.0
2016-Mar-07 11:27S 32°14' E 115°45'0 0.0
2016-Mar-07 10:33S 32°14' E 115°45'0 0.0
2016-Mar-07 09:33S 32°14' E 115°45'0 0.0
2016-Mar-07 08:33S 32°14' E 115°45'0 0.0
2016-Mar-07 07:33S 32°14' E 115°45'0 0.0
2016-Mar-07 06:33S 32°14' E 115°45'0 0.0
2016-Mar-07 05:33S 32°14' E 115°45'0 0.0
2016-Mar-07 04:33S 32°14' E 115°45'0 0.0
2016-Mar-07 03:33S 32°14' E 115°45'0 0.0
2016-Mar-07 02:33S 32°14' E 115°45'0 0.0
2016-Mar-07 01:33S 32°14' E 115°45'0 0.0
2016-Mar-07 00:27S 32°14' E 115°45'0 0.0
2016-Mar-06 23:33S 32°14' E 115°45'0 0.0
2016-Mar-06 22:33S 32°14' E 115°45'0 0.0
2016-Mar-06 21:30S 32°14' E 115°45'0 0.0
2016-Mar-06 20:27S 32°14' E 115°45'0 0.0
2016-Mar-06 19:33S 32°14' E 115°45'0 0.0
2016-Mar-06 18:33S 32°14' E 115°45'0 0.0
2016-Mar-06 15:18S 32°14' E 115°45'0 0.0
2016-Mar-06 14:33S 32°14' E 115°45'0 0.0
2016-Mar-06 13:33S 32°14' E 115°45'0 0.0
2016-Mar-06 11:33S 32°14' E 115°45'0 0.0
2016-Mar-06 10:33S 32°14' E 115°45'0 0.0
2016-Mar-06 09:27S 32°14' E 115°45'0 0.0
2016-Mar-06 08:33S 32°14' E 115°45'0 0.0
2016-Mar-06 07:24S 32°14' E 115°45'0 0.0
2016-Mar-06 06:27S 32°14' E 115°45'0 0.0
2016-Mar-06 05:33S 32°14' E 115°45'0 0.0
2016-Mar-06 04:33S 32°14' E 115°45'0 0.0
2016-Mar-06 03:33S 32°14' E 115°45'0 0.0
2016-Mar-06 02:33S 32°14' E 115°45'0 0.0
2016-Mar-06 01:33S 32°14' E 115°45'0 0.0
2016-Mar-06 00:33S 32°14' E 115°45'0 0.0
2016-Mar-05 23:33S 32°14' E 115°45'0 0.0
2016-Mar-05 22:33S 32°14' E 115°45'0 0.0
2016-Mar-05 21:33S 32°14' E 115°45'0 0.0
2016-Mar-05 20:33S 32°14' E 115°45'0 0.0
2016-Mar-05 19:33S 32°14' E 115°45'0 0.0
2016-Mar-05 18:33S 32°14' E 115°45'0 0.0
2016-Mar-05 17:33S 32°14' E 115°45'0 0.0
2016-Mar-05 16:33S 32°14' E 115°45'0 0.0
2016-Mar-05 15:27S 32°14' E 115°45'0 0.0
2016-Mar-05 14:33S 32°14' E 115°45'0 0.0
2016-Mar-05 13:15S 32°14' E 115°45'0 0.0
2016-Mar-05 12:33S 32°14' E 115°45'0 0.0
2016-Mar-05 11:09S 32°14' E 115°45'0 0.0
2016-Mar-05 10:33S 32°14' E 115°45'0 0.0
2016-Mar-05 09:33S 32°14' E 115°45'0 0.0
2016-Mar-05 08:33S 32°14' E 115°45'0 0.0
2016-Mar-05 07:33S 32°14' E 115°45'0 0.0
2016-Mar-05 06:33S 32°14' E 115°45'0 0.0
2016-Mar-05 05:33S 32°14' E 115°45'0 0.0
2016-Mar-05 04:33S 32°14' E 115°45'0 0.0
2016-Mar-05 03:33S 32°14' E 115°45'0 0.0
2016-Mar-05 02:33S 32°14' E 115°45'0 0.0
2016-Mar-05 01:33S 32°14' E 115°45'0 0.0
2016-Mar-05 00:33S 32°14' E 115°45'0 0.0
2016-Mar-04 23:33S 32°14' E 115°45'0 0.0
2016-Mar-04 22:33S 32°14' E 115°45'0 0.0
2016-Mar-04 21:33S 32°14' E 115°45'0 0.0
2016-Mar-04 20:27S 32°14' E 115°45'0 0.0
2016-Mar-04 19:33S 32°14' E 115°45'  

Dump ship's entire track history